sensor_id;sensor_type;location;lat;lon;timestamp;P1;durP1;ratioP1;P2;durP2;ratioP2
42168;SDS011;27838;43.858;25.974;2022-07-29T00:01:02;28.23;;;12.75;;
42168;SDS011;27838;43.858;25.974;2022-07-29T00:03:28;24.80;;;12.77;;
42168;SDS011;27838;43.858;25.974;2022-07-29T00:05:55;22.88;;;12.70;;
42168;SDS011;27838;43.858;25.974;2022-07-29T00:08:21;14.25;;;12.75;;
42168;SDS011;27838;43.858;25.974;2022-07-29T00:10:48;18.38;;;11.20;;
42168;SDS011;27838;43.858;25.974;2022-07-29T00:13:14;25.13;;;12.63;;
42168;SDS011;27838;43.858;25.974;2022-07-29T00:15:41;13.65;;;10.35;;
42168;SDS011;27838;43.858;25.974;2022-07-29T00:18:08;20.60;;;11.35;;
42168;SDS011;27838;43.858;25.974;2022-07-29T00:20:34;29.63;;;12.15;;
42168;SDS011;27838;43.858;25.974;2022-07-29T00:23:01;18.85;;;10.02;;
42168;SDS011;27838;43.858;25.974;2022-07-29T00:25:27;12.07;;;9.85;;
42168;SDS011;27838;43.858;25.974;2022-07-29T00:27:54;17.27;;;10.05;;
42168;SDS011;27838;43.858;25.974;2022-07-29T00:30:20;15.52;;;10.25;;
42168;SDS011;27838;43.858;25.974;2022-07-29T00:32:47;20.25;;;10.13;;
42168;SDS011;27838;43.858;25.974;2022-07-29T00:35:13;16.45;;;9.70;;
42168;SDS011;27838;43.858;25.974;2022-07-29T00:37:57;14.18;;;9.00;;
42168;SDS011;27838;43.858;25.974;2022-07-29T00:40:24;18.13;;;9.18;;
42168;SDS011;27838;43.858;25.974;2022-07-29T00:42:51;12.50;;;8.68;;
42168;SDS011;27838;43.858;25.974;2022-07-29T00:45:18;19.08;;;8.65;;
42168;SDS011;27838;43.858;25.974;2022-07-29T00:47:46;14.73;;;8.40;;
42168;SDS011;27838;43.858;25.974;2022-07-29T00:50:13;20.85;;;7.97;;
42168;SDS011;27838;43.858;25.974;2022-07-29T00:52:41;13.50;;;7.78;;
42168;SDS011;27838;43.858;25.974;2022-07-29T00:55:12;13.98;;;7.38;;
42168;SDS011;27838;43.858;25.974;2022-07-29T00:57:40;8.82;;;6.78;;
42168;SDS011;27838;43.858;25.974;2022-07-29T01:00:13;16.00;;;7.53;;
42168;SDS011;27838;43.858;25.974;2022-07-29T01:02:47;8.93;;;8.00;;
42168;SDS011;27838;43.858;25.974;2022-07-29T01:05:15;12.73;;;8.65;;
42168;SDS011;27838;43.858;25.974;2022-07-29T01:07:44;18.52;;;9.18;;
42168;SDS011;27838;43.858;25.974;2022-07-29T01:10:13;12.30;;;9.27;;
42168;SDS011;27838;43.858;25.974;2022-07-29T01:12:42;15.18;;;9.45;;
42168;SDS011;27838;43.858;25.974;2022-07-29T01:15:10;20.90;;;9.40;;
42168;SDS011;27838;43.858;25.974;2022-07-29T01:32:01;12.65;;;8.55;;
42168;SDS011;27838;43.858;25.974;2022-07-29T01:39:47;10.50;;;7.97;;
42168;SDS011;27838;43.858;25.974;2022-07-29T01:50:36;11.70;;;7.05;;
42168;SDS011;27838;43.858;25.974;2022-07-29T01:53:21;13.97;;;7.03;;
42168;SDS011;27838;43.858;25.974;2022-07-29T01:55:53;11.93;;;7.53;;
42168;SDS011;27838;43.858;25.974;2022-07-29T01:58:23;22.38;;;7.82;;
42168;SDS011;27838;43.858;25.974;2022-07-29T02:00:51;21.27;;;7.82;;
42168;SDS011;27838;43.858;25.974;2022-07-29T02:03:19;11.05;;;7.22;;
42168;SDS011;27838;43.858;25.974;2022-07-29T02:05:48;9.68;;;7.47;;
42168;SDS011;27838;43.858;25.974;2022-07-29T02:08:17;11.98;;;6.95;;
42168;SDS011;27838;43.858;25.974;2022-07-29T02:10:45;12.68;;;7.03;;
42168;SDS011;27838;43.858;25.974;2022-07-29T02:13:15;14.93;;;7.05;;
42168;SDS011;27838;43.858;25.974;2022-07-29T02:15:44;14.88;;;7.43;;
42168;SDS011;27838;43.858;25.974;2022-07-29T02:18:12;11.57;;;7.47;;
42168;SDS011;27838;43.858;25.974;2022-07-29T02:20:47;16.67;;;7.55;;
42168;SDS011;27838;43.858;25.974;2022-07-29T02:23:23;27.17;;;8.32;;
42168;SDS011;27838;43.858;25.974;2022-07-29T02:25:51;20.15;;;8.60;;
42168;SDS011;27838;43.858;25.974;2022-07-29T02:28:21;25.13;;;10.40;;
42168;SDS011;27838;43.858;25.974;2022-07-29T02:30:51;23.80;;;10.00;;
42168;SDS011;27838;43.858;25.974;2022-07-29T02:33:19;14.18;;;9.75;;
42168;SDS011;27838;43.858;25.974;2022-07-29T02:35:47;19.45;;;9.57;;
42168;SDS011;27838;43.858;25.974;2022-07-29T02:38:15;17.50;;;10.45;;
42168;SDS011;27838;43.858;25.974;2022-07-29T02:41:10;20.80;;;9.43;;
42168;SDS011;27838;43.858;25.974;2022-07-29T02:43:38;18.75;;;9.45;;
42168;SDS011;27838;43.858;25.974;2022-07-29T02:46:07;17.98;;;9.45;;
42168;SDS011;27838;43.858;25.974;2022-07-29T02:48:41;20.10;;;10.13;;
42168;SDS011;27838;43.858;25.974;2022-07-29T02:51:34;19.77;;;9.38;;
42168;SDS011;27838;43.858;25.974;2022-07-29T02:54:09;15.40;;;9.45;;
42168;SDS011;27838;43.858;25.974;2022-07-29T02:56:37;15.20;;;10.07;;
42168;SDS011;27838;43.858;25.974;2022-07-29T02:59:07;14.73;;;9.27;;
42168;SDS011;27838;43.858;25.974;2022-07-29T03:01:38;22.20;;;9.32;;
42168;SDS011;27838;43.858;25.974;2022-07-29T03:04:08;12.95;;;9.88;;
42168;SDS011;27838;43.858;25.974;2022-07-29T03:06:37;23.33;;;10.07;;
42168;SDS011;27838;43.858;25.974;2022-07-29T03:09:07;29.55;;;11.30;;
42168;SDS011;27838;43.858;25.974;2022-07-29T03:11:34;19.80;;;10.57;;
42168;SDS011;27838;43.858;25.974;2022-07-29T03:14:02;17.30;;;9.57;;
42168;SDS011;27838;43.858;25.974;2022-07-29T03:16:29;11.85;;;10.20;;
42168;SDS011;27838;43.858;25.974;2022-07-29T03:18:56;14.55;;;9.82;;
42168;SDS011;27838;43.858;25.974;2022-07-29T03:21:22;15.13;;;10.15;;
42168;SDS011;27838;43.858;25.974;2022-07-29T03:23:49;15.10;;;10.13;;
42168;SDS011;27838;43.858;25.974;2022-07-29T03:26:15;18.00;;;10.82;;
42168;SDS011;27838;43.858;25.974;2022-07-29T03:28:43;17.70;;;10.55;;
42168;SDS011;27838;43.858;25.974;2022-07-29T03:31:10;16.15;;;9.18;;
42168;SDS011;27838;43.858;25.974;2022-07-29T03:33:36;14.35;;;9.18;;
42168;SDS011;27838;43.858;25.974;2022-07-29T03:36:03;16.50;;;8.70;;
42168;SDS011;27838;43.858;25.974;2022-07-29T03:38:30;14.02;;;8.73;;
42168;SDS011;27838;43.858;25.974;2022-07-29T03:41:01;20.93;;;9.47;;
42168;SDS011;27838;43.858;25.974;2022-07-29T03:43:32;20.58;;;10.13;;
42168;SDS011;27838;43.858;25.974;2022-07-29T03:46:01;23.27;;;9.57;;
42168;SDS011;27838;43.858;25.974;2022-07-29T03:48:32;15.00;;;8.52;;
42168;SDS011;27838;43.858;25.974;2022-07-29T03:51:03;17.00;;;8.20;;
42168;SDS011;27838;43.858;25.974;2022-07-29T03:53:29;15.68;;;7.68;;
42168;SDS011;27838;43.858;25.974;2022-07-29T03:55:58;15.43;;;6.90;;
42168;SDS011;27838;43.858;25.974;2022-07-29T03:58:26;13.05;;;7.43;;
42168;SDS011;27838;43.858;25.974;2022-07-29T04:00:54;19.02;;;7.85;;
42168;SDS011;27838;43.858;25.974;2022-07-29T04:03:21;13.82;;;8.70;;
42168;SDS011;27838;43.858;25.974;2022-07-29T04:06:01;18.27;;;8.30;;
42168;SDS011;27838;43.858;25.974;2022-07-29T04:08:30;13.70;;;8.23;;
42168;SDS011;27838;43.858;25.974;2022-07-29T04:10:58;42.72;;;10.35;;
42168;SDS011;27838;43.858;25.974;2022-07-29T04:13:25;22.33;;;9.23;;
42168;SDS011;27838;43.858;25.974;2022-07-29T04:15:52;32.10;;;10.18;;
42168;SDS011;27838;43.858;25.974;2022-07-29T04:18:18;24.77;;;10.27;;
42168;SDS011;27838;43.858;25.974;2022-07-29T04:20:45;27.98;;;11.77;;
42168;SDS011;27838;43.858;25.974;2022-07-29T04:23:11;29.08;;;11.57;;
42168;SDS011;27838;43.858;25.974;2022-07-29T04:25:38;20.42;;;10.35;;
42168;SDS011;27838;43.858;25.974;2022-07-29T04:28:06;20.88;;;10.30;;
42168;SDS011;27838;43.858;25.974;2022-07-29T04:30:33;17.67;;;8.88;;
42168;SDS011;27838;43.858;25.974;2022-07-29T04:33:01;16.02;;;10.07;;
42168;SDS011;27838;43.858;25.974;2022-07-29T04:35:29;27.30;;;9.77;;
42168;SDS011;27838;43.858;25.974;2022-07-29T04:37:57;17.27;;;8.85;;
42168;SDS011;27838;43.858;25.974;2022-07-29T04:40:23;14.15;;;8.90;;
42168;SDS011;27838;43.858;25.974;2022-07-29T04:42:50;29.30;;;10.98;;
42168;SDS011;27838;43.858;25.974;2022-07-29T04:45:16;36.58;;;11.38;;
42168;SDS011;27838;43.858;25.974;2022-07-29T04:47:43;23.17;;;9.65;;
42168;SDS011;27838;43.858;25.974;2022-07-29T04:50:10;23.60;;;11.82;;
42168;SDS011;27838;43.858;25.974;2022-07-29T04:52:36;31.75;;;11.20;;
42168;SDS011;27838;43.858;25.974;2022-07-29T04:55:04;28.77;;;11.18;;
42168;SDS011;27838;43.858;25.974;2022-07-29T04:57:31;40.63;;;10.52;;
42168;SDS011;27838;43.858;25.974;2022-07-29T04:59:58;20.67;;;8.85;;
42168;SDS011;27838;43.858;25.974;2022-07-29T05:02:25;21.10;;;7.30;;
42168;SDS011;27838;43.858;25.974;2022-07-29T05:04:51;38.92;;;7.78;;
42168;SDS011;27838;43.858;25.974;2022-07-29T05:07:18;19.67;;;7.30;;
42168;SDS011;27838;43.858;25.974;2022-07-29T05:09:45;26.55;;;7.47;;
42168;SDS011;27838;43.858;25.974;2022-07-29T05:12:12;18.40;;;6.93;;
42168;SDS011;27838;43.858;25.974;2022-07-29T05:14:38;18.30;;;6.32;;
42168;SDS011;27838;43.858;25.974;2022-07-29T05:17:05;21.70;;;6.25;;
42168;SDS011;27838;43.858;25.974;2022-07-29T05:19:32;34.00;;;7.28;;
42168;SDS011;27838;43.858;25.974;2022-07-29T05:21:58;23.95;;;6.55;;
42168;SDS011;27838;43.858;25.974;2022-07-29T05:24:25;25.25;;;7.10;;
42168;SDS011;27838;43.858;25.974;2022-07-29T05:26:52;18.73;;;6.00;;
42168;SDS011;27838;43.858;25.974;2022-07-29T05:29:18;17.25;;;6.22;;
42168;SDS011;27838;43.858;25.974;2022-07-29T05:31:45;11.80;;;6.15;;
42168;SDS011;27838;43.858;25.974;2022-07-29T05:34:11;24.73;;;7.22;;
42168;SDS011;27838;43.858;25.974;2022-07-29T05:36:38;33.25;;;7.55;;
42168;SDS011;27838;43.858;25.974;2022-07-29T05:39:05;16.17;;;6.85;;
42168;SDS011;27838;43.858;25.974;2022-07-29T05:41:32;23.42;;;7.55;;
42168;SDS011;27838;43.858;25.974;2022-07-29T05:43:58;17.98;;;7.15;;
42168;SDS011;27838;43.858;25.974;2022-07-29T05:46:25;15.35;;;6.57;;
42168;SDS011;27838;43.858;25.974;2022-07-29T05:48:52;21.25;;;7.30;;
42168;SDS011;27838;43.858;25.974;2022-07-29T05:51:18;20.35;;;6.90;;
42168;SDS011;27838;43.858;25.974;2022-07-29T05:53:45;32.22;;;7.18;;
42168;SDS011;27838;43.858;25.974;2022-07-29T05:56:12;18.92;;;7.18;;
42168;SDS011;27838;43.858;25.974;2022-07-29T05:58:38;19.92;;;6.97;;
42168;SDS011;27838;43.858;25.974;2022-07-29T06:01:05;23.15;;;7.28;;
42168;SDS011;27838;43.858;25.974;2022-07-29T06:03:31;23.95;;;8.20;;
42168;SDS011;27838;43.858;25.974;2022-07-29T06:05:58;17.42;;;6.88;;
42168;SDS011;27838;43.858;25.974;2022-07-29T06:08:24;25.92;;;6.90;;
42168;SDS011;27838;43.858;25.974;2022-07-29T06:10:51;25.83;;;7.57;;
42168;SDS011;27838;43.858;25.974;2022-07-29T06:13:17;29.30;;;7.13;;
42168;SDS011;27838;43.858;25.974;2022-07-29T06:15:44;25.33;;;6.60;;
42168;SDS011;27838;43.858;25.974;2022-07-29T06:18:11;24.38;;;6.70;;
42168;SDS011;27838;43.858;25.974;2022-07-29T06:20:38;23.38;;;7.40;;
42168;SDS011;27838;43.858;25.974;2022-07-29T06:23:05;21.55;;;7.53;;
42168;SDS011;27838;43.858;25.974;2022-07-29T06:25:31;17.13;;;6.85;;
42168;SDS011;27838;43.858;25.974;2022-07-29T06:28:00;15.45;;;5.78;;
42168;SDS011;27838;43.858;25.974;2022-07-29T06:30:26;14.18;;;4.82;;
42168;SDS011;27838;43.858;25.974;2022-07-29T06:32:53;13.05;;;4.80;;
42168;SDS011;27838;43.858;25.974;2022-07-29T06:35:20;15.57;;;5.03;;
42168;SDS011;27838;43.858;25.974;2022-07-29T06:37:47;9.80;;;4.53;;
42168;SDS011;27838;43.858;25.974;2022-07-29T06:40:14;13.30;;;5.25;;
42168;SDS011;27838;43.858;25.974;2022-07-29T06:42:58;21.13;;;5.57;;
42168;SDS011;27838;43.858;25.974;2022-07-29T06:45:24;15.38;;;5.50;;
42168;SDS011;27838;43.858;25.974;2022-07-29T06:47:51;21.95;;;4.80;;
42168;SDS011;27838;43.858;25.974;2022-07-29T06:50:18;27.15;;;5.97;;
42168;SDS011;27838;43.858;25.974;2022-07-29T06:52:45;28.15;;;5.88;;
42168;SDS011;27838;43.858;25.974;2022-07-29T06:55:11;16.00;;;4.88;;
42168;SDS011;27838;43.858;25.974;2022-07-29T06:57:38;17.35;;;5.18;;
42168;SDS011;27838;43.858;25.974;2022-07-29T07:00:05;28.50;;;7.20;;
42168;SDS011;27838;43.858;25.974;2022-07-29T07:02:32;24.77;;;7.45;;
42168;SDS011;27838;43.858;25.974;2022-07-29T07:04:58;22.13;;;6.35;;
42168;SDS011;27838;43.858;25.974;2022-07-29T07:07:25;34.75;;;8.65;;
42168;SDS011;27838;43.858;25.974;2022-07-29T07:09:51;18.70;;;5.22;;
42168;SDS011;27838;43.858;25.974;2022-07-29T07:12:18;7.63;;;3.67;;
42168;SDS011;27838;43.858;25.974;2022-07-29T07:14:45;11.65;;;4.00;;
42168;SDS011;27838;43.858;25.974;2022-07-29T07:17:11;7.13;;;3.05;;
42168;SDS011;27838;43.858;25.974;2022-07-29T07:19:38;6.50;;;3.58;;
42168;SDS011;27838;43.858;25.974;2022-07-29T07:22:04;17.38;;;4.93;;
42168;SDS011;27838;43.858;25.974;2022-07-29T07:24:31;31.33;;;6.10;;
42168;SDS011;27838;43.858;25.974;2022-07-29T07:26:57;27.42;;;6.68;;
42168;SDS011;27838;43.858;25.974;2022-07-29T07:29:24;27.88;;;6.78;;
42168;SDS011;27838;43.858;25.974;2022-07-29T07:31:50;14.75;;;4.95;;
42168;SDS011;27838;43.858;25.974;2022-07-29T07:34:17;8.82;;;3.70;;
42168;SDS011;27838;43.858;25.974;2022-07-29T07:36:44;7.53;;;3.30;;
42168;SDS011;27838;43.858;25.974;2022-07-29T07:39:10;11.93;;;3.47;;
42168;SDS011;27838;43.858;25.974;2022-07-29T07:41:37;14.60;;;3.72;;
42168;SDS011;27838;43.858;25.974;2022-07-29T07:44:04;10.80;;;3.50;;
42168;SDS011;27838;43.858;25.974;2022-07-29T07:46:31;13.85;;;3.20;;
42168;SDS011;27838;43.858;25.974;2022-07-29T07:48:57;14.43;;;3.22;;
42168;SDS011;27838;43.858;25.974;2022-07-29T07:51:24;9.30;;;2.38;;
42168;SDS011;27838;43.858;25.974;2022-07-29T07:53:50;4.97;;;2.47;;
42168;SDS011;27838;43.858;25.974;2022-07-29T07:56:17;3.88;;;2.58;;
42168;SDS011;27838;43.858;25.974;2022-07-29T07:58:44;5.20;;;2.65;;
42168;SDS011;27838;43.858;25.974;2022-07-29T08:01:10;6.30;;;2.63;;
42168;SDS011;27838;43.858;25.974;2022-07-29T08:03:37;5.18;;;2.58;;
42168;SDS011;27838;43.858;25.974;2022-07-29T08:06:04;3.67;;;2.67;;
42168;SDS011;27838;43.858;25.974;2022-07-29T08:08:31;7.88;;;3.05;;
42168;SDS011;27838;43.858;25.974;2022-07-29T08:10:58;8.05;;;2.90;;
42168;SDS011;27838;43.858;25.974;2022-07-29T08:13:27;7.80;;;4.40;;
42168;SDS011;27838;43.858;25.974;2022-07-29T08:15:55;4.07;;;2.63;;
42168;SDS011;27838;43.858;25.974;2022-07-29T08:18:28;5.25;;;3.15;;
42168;SDS011;27838;43.858;25.974;2022-07-29T08:20:56;5.55;;;3.10;;
42168;SDS011;27838;43.858;25.974;2022-07-29T08:23:24;5.00;;;3.15;;
42168;SDS011;27838;43.858;25.974;2022-07-29T08:25:51;3.70;;;2.70;;
42168;SDS011;27838;43.858;25.974;2022-07-29T08:28:18;8.48;;;2.90;;
42168;SDS011;27838;43.858;25.974;2022-07-29T08:30:45;5.00;;;2.95;;
42168;SDS011;27838;43.858;25.974;2022-07-29T08:33:11;6.13;;;2.60;;
42168;SDS011;27838;43.858;25.974;2022-07-29T08:35:38;8.25;;;3.58;;
42168;SDS011;27838;43.858;25.974;2022-07-29T08:38:05;10.05;;;3.30;;
42168;SDS011;27838;43.858;25.974;2022-07-29T08:40:32;13.20;;;3.05;;
42168;SDS011;27838;43.858;25.974;2022-07-29T08:43:03;4.30;;;2.90;;
42168;SDS011;27838;43.858;25.974;2022-07-29T08:45:44;22.58;;;6.13;;
42168;SDS011;27838;43.858;25.974;2022-07-29T08:48:13;13.75;;;4.15;;
42168;SDS011;27838;43.858;25.974;2022-07-29T08:50:42;9.35;;;3.72;;
42168;SDS011;27838;43.858;25.974;2022-07-29T08:53:10;5.63;;;2.78;;
42168;SDS011;27838;43.858;25.974;2022-07-29T08:55:45;11.27;;;4.03;;
42168;SDS011;27838;43.858;25.974;2022-07-29T08:58:14;9.30;;;2.97;;
42168;SDS011;27838;43.858;25.974;2022-07-29T09:00:43;30.23;;;5.22;;
42168;SDS011;27838;43.858;25.974;2022-07-29T09:03:14;9.20;;;3.40;;
42168;SDS011;27838;43.858;25.974;2022-07-29T09:05:46;9.35;;;3.05;;
42168;SDS011;27838;43.858;25.974;2022-07-29T09:08:14;10.00;;;3.67;;
42168;SDS011;27838;43.858;25.974;2022-07-29T09:10:41;9.00;;;3.10;;
42168;SDS011;27838;43.858;25.974;2022-07-29T09:13:08;9.35;;;3.20;;
42168;SDS011;27838;43.858;25.974;2022-07-29T09:15:35;3.42;;;2.60;;
42168;SDS011;27838;43.858;25.974;2022-07-29T09:18:02;9.60;;;3.33;;
42168;SDS011;27838;43.858;25.974;2022-07-29T09:20:29;7.82;;;4.28;;
42168;SDS011;27838;43.858;25.974;2022-07-29T09:23:16;3.33;;;2.70;;
42168;SDS011;27838;43.858;25.974;2022-07-29T09:25:42;4.53;;;2.53;;
42168;SDS011;27838;43.858;25.974;2022-07-29T09:28:10;5.00;;;3.00;;
42168;SDS011;27838;43.858;25.974;2022-07-29T09:30:54;3.05;;;2.55;;
42168;SDS011;27838;43.858;25.974;2022-07-29T09:33:23;3.33;;;2.50;;
42168;SDS011;27838;43.858;25.974;2022-07-29T09:36:03;3.95;;;2.45;;
42168;SDS011;27838;43.858;25.974;2022-07-29T09:38:31;6.80;;;2.70;;
42168;SDS011;27838;43.858;25.974;2022-07-29T09:41:01;5.78;;;2.70;;
42168;SDS011;27838;43.858;25.974;2022-07-29T09:43:28;5.72;;;2.63;;
42168;SDS011;27838;43.858;25.974;2022-07-29T09:45:55;5.88;;;3.35;;
42168;SDS011;27838;43.858;25.974;2022-07-29T09:48:35;8.73;;;3.03;;
42168;SDS011;27838;43.858;25.974;2022-07-29T09:51:02;2.97;;;2.67;;
42168;SDS011;27838;43.858;25.974;2022-07-29T09:53:34;4.75;;;2.92;;
42168;SDS011;27838;43.858;25.974;2022-07-29T09:56:05;5.63;;;2.88;;
42168;SDS011;27838;43.858;25.974;2022-07-29T09:58:32;4.50;;;2.55;;
42168;SDS011;27838;43.858;25.974;2022-07-29T10:00:59;3.70;;;2.42;;
42168;SDS011;27838;43.858;25.974;2022-07-29T10:03:26;3.35;;;2.65;;
42168;SDS011;27838;43.858;25.974;2022-07-29T10:08:31;6.43;;;2.38;;
42168;SDS011;27838;43.858;25.974;2022-07-29T10:11:20;5.22;;;2.65;;
42168;SDS011;27838;43.858;25.974;2022-07-29T10:13:46;5.90;;;2.38;;
42168;SDS011;27838;43.858;25.974;2022-07-29T10:16:14;7.22;;;3.13;;
42168;SDS011;27838;43.858;25.974;2022-07-29T10:18:43;3.55;;;2.38;;
42168;SDS011;27838;43.858;25.974;2022-07-29T10:21:12;10.65;;;3.28;;
42168;SDS011;27838;43.858;25.974;2022-07-29T10:23:39;4.20;;;2.80;;
42168;SDS011;27838;43.858;25.974;2022-07-29T10:26:07;11.45;;;3.50;;
42168;SDS011;27838;43.858;25.974;2022-07-29T10:28:33;6.30;;;3.25;;
42168;SDS011;27838;43.858;25.974;2022-07-29T10:31:02;4.95;;;2.70;;
42168;SDS011;27838;43.858;25.974;2022-07-29T10:33:37;7.53;;;3.70;;
42168;SDS011;27838;43.858;25.974;2022-07-29T10:43:59;4.40;;;2.83;;
42168;SDS011;27838;43.858;25.974;2022-07-29T10:46:35;5.47;;;2.80;;
42168;SDS011;27838;43.858;25.974;2022-07-29T10:51:56;6.25;;;2.53;;
42168;SDS011;27838;43.858;25.974;2022-07-29T10:54:42;9.70;;;3.03;;
42168;SDS011;27838;43.858;25.974;2022-07-29T10:59:50;3.63;;;2.80;;
42168;SDS011;27838;43.858;25.974;2022-07-29T11:05:09;7.90;;;3.08;;
42168;SDS011;27838;43.858;25.974;2022-07-29T11:10:42;5.72;;;3.67;;
42168;SDS011;27838;43.858;25.974;2022-07-29T11:13:09;2.70;;;2.50;;
42168;SDS011;27838;43.858;25.974;2022-07-29T11:15:52;5.85;;;2.55;;
42168;SDS011;27838;43.858;25.974;2022-07-29T11:18:19;7.68;;;2.83;;
42168;SDS011;27838;43.858;25.974;2022-07-29T11:20:47;11.15;;;2.22;;
42168;SDS011;27838;43.858;25.974;2022-07-29T11:31:20;5.05;;;3.00;;
42168;SDS011;27838;43.858;25.974;2022-07-29T11:34:03;6.93;;;2.63;;
42168;SDS011;27838;43.858;25.974;2022-07-29T11:39:37;7.63;;;2.83;;
42168;SDS011;27838;43.858;25.974;2022-07-29T11:47:28;5.75;;;2.92;;
42168;SDS011;27838;43.858;25.974;2022-07-29T11:49:56;3.65;;;2.85;;
42168;SDS011;27838;43.858;25.974;2022-07-29T11:52:23;6.82;;;3.20;;
42168;SDS011;27838;43.858;25.974;2022-07-29T11:54:58;7.63;;;3.20;;
42168;SDS011;27838;43.858;25.974;2022-07-29T11:57:28;7.32;;;2.80;;
42168;SDS011;27838;43.858;25.974;2022-07-29T11:59:55;5.25;;;2.75;;
42168;SDS011;27838;43.858;25.974;2022-07-29T12:02:24;5.47;;;2.97;;
42168;SDS011;27838;43.858;25.974;2022-07-29T12:04:54;5.22;;;3.00;;
42168;SDS011;27838;43.858;25.974;2022-07-29T12:07:30;8.25;;;3.60;;
42168;SDS011;27838;43.858;25.974;2022-07-29T12:09:58;9.02;;;3.60;;
42168;SDS011;27838;43.858;25.974;2022-07-29T12:12:25;6.47;;;3.30;;
42168;SDS011;27838;43.858;25.974;2022-07-29T12:14:52;6.43;;;3.00;;
42168;SDS011;27838;43.858;25.974;2022-07-29T12:19:57;10.40;;;3.47;;
42168;SDS011;27838;43.858;25.974;2022-07-29T12:22:26;3.35;;;2.67;;
42168;SDS011;27838;43.858;25.974;2022-07-29T12:24:54;5.25;;;2.80;;
42168;SDS011;27838;43.858;25.974;2022-07-29T12:27:21;4.63;;;2.60;;
42168;SDS011;27838;43.858;25.974;2022-07-29T12:29:55;8.82;;;2.90;;
42168;SDS011;27838;43.858;25.974;2022-07-29T12:32:46;4.28;;;2.65;;
42168;SDS011;27838;43.858;25.974;2022-07-29T12:35:17;11.38;;;2.78;;
42168;SDS011;27838;43.858;25.974;2022-07-29T12:37:46;8.48;;;3.35;;
42168;SDS011;27838;43.858;25.974;2022-07-29T12:40:16;11.25;;;3.65;;
42168;SDS011;27838;43.858;25.974;2022-07-29T12:43:18;7.20;;;5.40;;
42168;SDS011;27838;43.858;25.974;2022-07-29T12:45:38;8.38;;;3.92;;
42168;SDS011;27838;43.858;25.974;2022-07-29T12:48:06;8.50;;;3.65;;
42168;SDS011;27838;43.858;25.974;2022-07-29T12:50:35;4.68;;;3.15;;
42168;SDS011;27838;43.858;25.974;2022-07-29T12:53:09;10.57;;;3.38;;
42168;SDS011;27838;43.858;25.974;2022-07-29T12:55:41;3.90;;;2.80;;
42168;SDS011;27838;43.858;25.974;2022-07-29T12:58:13;6.43;;;2.95;;
42168;SDS011;27838;43.858;25.974;2022-07-29T13:00:40;3.97;;;2.92;;
42168;SDS011;27838;43.858;25.974;2022-07-29T13:03:07;10.32;;;3.60;;
42168;SDS011;27838;43.858;25.974;2022-07-29T13:05:40;11.48;;;3.55;;
42168;SDS011;27838;43.858;25.974;2022-07-29T13:08:14;6.47;;;3.08;;
42168;SDS011;27838;43.858;25.974;2022-07-29T13:10:43;5.60;;;2.95;;
42168;SDS011;27838;43.858;25.974;2022-07-29T13:13:11;9.05;;;3.00;;
42168;SDS011;27838;43.858;25.974;2022-07-29T13:15:43;7.15;;;3.10;;
42168;SDS011;27838;43.858;25.974;2022-07-29T13:21:10;4.53;;;2.85;;
42168;SDS011;27838;43.858;25.974;2022-07-29T13:23:38;10.73;;;3.58;;
42168;SDS011;27838;43.858;25.974;2022-07-29T13:26:08;4.15;;;2.92;;
42168;SDS011;27838;43.858;25.974;2022-07-29T13:28:36;3.83;;;2.97;;
42168;SDS011;27838;43.858;25.974;2022-07-29T13:31:03;8.15;;;2.78;;
42168;SDS011;27838;43.858;25.974;2022-07-29T13:33:30;5.82;;;2.63;;
42168;SDS011;27838;43.858;25.974;2022-07-29T13:35:57;4.63;;;2.80;;
42168;SDS011;27838;43.858;25.974;2022-07-29T13:38:23;4.70;;;3.13;;
42168;SDS011;27838;43.858;25.974;2022-07-29T13:40:50;8.45;;;3.30;;
42168;SDS011;27838;43.858;25.974;2022-07-29T13:43:16;10.13;;;3.15;;
42168;SDS011;27838;43.858;25.974;2022-07-29T13:45:43;4.43;;;2.90;;
42168;SDS011;27838;43.858;25.974;2022-07-29T13:48:10;6.03;;;3.00;;
42168;SDS011;27838;43.858;25.974;2022-07-29T13:50:36;5.05;;;2.80;;
42168;SDS011;27838;43.858;25.974;2022-07-29T13:53:03;6.07;;;2.95;;
42168;SDS011;27838;43.858;25.974;2022-07-29T13:55:29;8.63;;;3.20;;
42168;SDS011;27838;43.858;25.974;2022-07-29T13:57:56;3.60;;;2.55;;
42168;SDS011;27838;43.858;25.974;2022-07-29T14:00:22;7.82;;;3.30;;
42168;SDS011;27838;43.858;25.974;2022-07-29T14:02:49;9.20;;;2.85;;
42168;SDS011;27838;43.858;25.974;2022-07-29T14:05:16;28.38;;;14.50;;
42168;SDS011;27838;43.858;25.974;2022-07-29T14:07:42;7.30;;;3.70;;
42168;SDS011;27838;43.858;25.974;2022-07-29T14:10:09;11.23;;;5.75;;
42168;SDS011;27838;43.858;25.974;2022-07-29T14:12:36;37.67;;;24.42;;
42168;SDS011;27838;43.858;25.974;2022-07-29T14:15:03;9.23;;;4.07;;
42168;SDS011;27838;43.858;25.974;2022-07-29T14:17:29;17.17;;;12.85;;
42168;SDS011;27838;43.858;25.974;2022-07-29T14:19:56;4.60;;;3.20;;
42168;SDS011;27838;43.858;25.974;2022-07-29T14:22:23;6.85;;;2.85;;
42168;SDS011;27838;43.858;25.974;2022-07-29T14:24:50;7.07;;;3.03;;
42168;SDS011;27838;43.858;25.974;2022-07-29T14:27:17;7.25;;;3.20;;
42168;SDS011;27838;43.858;25.974;2022-07-29T14:29:43;7.03;;;3.03;;
42168;SDS011;27838;43.858;25.974;2022-07-29T14:32:10;7.50;;;3.25;;
42168;SDS011;27838;43.858;25.974;2022-07-29T14:34:37;9.35;;;3.92;;
42168;SDS011;27838;43.858;25.974;2022-07-29T14:37:04;7.35;;;3.70;;
42168;SDS011;27838;43.858;25.974;2022-07-29T14:39:31;6.45;;;3.78;;
42168;SDS011;27838;43.858;25.974;2022-07-29T14:41:58;7.90;;;4.22;;
42168;SDS011;27838;43.858;25.974;2022-07-29T14:44:25;10.45;;;4.25;;
42168;SDS011;27838;43.858;25.974;2022-07-29T14:46:56;9.20;;;4.40;;
42168;SDS011;27838;43.858;25.974;2022-07-29T14:49:24;6.78;;;4.60;;
42168;SDS011;27838;43.858;25.974;2022-07-29T14:51:51;5.68;;;4.32;;
42168;SDS011;27838;43.858;25.974;2022-07-29T14:54:18;17.60;;;5.13;;
42168;SDS011;27838;43.858;25.974;2022-07-29T14:56:44;69.22;;;32.70;;
42168;SDS011;27838;43.858;25.974;2022-07-29T14:59:11;21.77;;;15.40;;
42168;SDS011;27838;43.858;25.974;2022-07-29T15:01:38;14.13;;;6.68;;
42168;SDS011;27838;43.858;25.974;2022-07-29T15:04:04;5.28;;;4.15;;
42168;SDS011;27838;43.858;25.974;2022-07-29T15:06:31;7.22;;;3.40;;
42168;SDS011;27838;43.858;25.974;2022-07-29T15:08:57;6.78;;;3.60;;
42168;SDS011;27838;43.858;25.974;2022-07-29T15:11:24;8.88;;;4.05;;
42168;SDS011;27838;43.858;25.974;2022-07-29T15:13:50;12.75;;;4.68;;
42168;SDS011;27838;43.858;25.974;2022-07-29T15:16:17;7.15;;;3.88;;
42168;SDS011;27838;43.858;25.974;2022-07-29T15:18:44;5.50;;;3.60;;
42168;SDS011;27838;43.858;25.974;2022-07-29T15:21:10;6.10;;;3.60;;
42168;SDS011;27838;43.858;25.974;2022-07-29T15:23:37;4.00;;;3.42;;
42168;SDS011;27838;43.858;25.974;2022-07-29T15:26:03;5.47;;;3.67;;
42168;SDS011;27838;43.858;25.974;2022-07-29T15:28:30;10.95;;;3.85;;
42168;SDS011;27838;43.858;25.974;2022-07-29T15:30:57;5.72;;;3.58;;
42168;SDS011;27838;43.858;25.974;2022-07-29T15:33:23;27.27;;;16.27;;
42168;SDS011;27838;43.858;25.974;2022-07-29T15:35:51;23.90;;;16.33;;
42168;SDS011;27838;43.858;25.974;2022-07-29T15:38:17;7.07;;;5.45;;
42168;SDS011;27838;43.858;25.974;2022-07-29T15:40:44;9.43;;;4.63;;
42168;SDS011;27838;43.858;25.974;2022-07-29T15:43:11;5.95;;;4.20;;
42168;SDS011;27838;43.858;25.974;2022-07-29T15:45:38;6.97;;;4.68;;